sensor_id;sensor_type;location;lat;lon;timestamp;P1;durP1;ratioP1;P2;durP2;ratioP2
27839;SDS011;15207;42.182;24.308;2023-08-07T00:00:19;0.50;;;0.50;;
27839;SDS011;15207;42.182;24.308;2023-08-07T00:07:35;0.90;;;0.30;;
27839;SDS011;15207;42.182;24.308;2023-08-07T00:10:01;0.40;;;0.30;;
27839;SDS011;15207;42.182;24.308;2023-08-07T00:17:18;0.80;;;0.55;;
27839;SDS011;15207;42.182;24.308;2023-08-07T00:24:35;0.40;;;0.40;;
27839;SDS011;15207;42.182;24.308;2023-08-07T00:27:01;0.65;;;0.65;;
27839;SDS011;15207;42.182;24.308;2023-08-07T00:29:27;3.90;;;0.60;;
27839;SDS011;15207;42.182;24.308;2023-08-07T00:31:52;0.80;;;0.50;;
27839;SDS011;15207;42.182;24.308;2023-08-07T00:34:18;1.35;;;0.80;;
27839;SDS011;15207;42.182;24.308;2023-08-07T00:36:43;0.80;;;0.50;;
27839;SDS011;15207;42.182;24.308;2023-08-07T00:39:09;1.10;;;0.75;;
27839;SDS011;15207;42.182;24.308;2023-08-07T00:41:34;1.20;;;0.40;;
27839;SDS011;15207;42.182;24.308;2023-08-07T00:44:01;1.50;;;0.70;;
27839;SDS011;15207;42.182;24.308;2023-08-07T00:46:27;1.30;;;0.60;;
27839;SDS011;15207;42.182;24.308;2023-08-07T00:48:54;0.90;;;0.50;;
27839;SDS011;15207;42.182;24.308;2023-08-07T00:51:20;0.97;;;0.50;;
27839;SDS011;15207;42.182;24.308;2023-08-07T00:53:48;0.70;;;0.70;;
27839;SDS011;15207;42.182;24.308;2023-08-07T00:58:39;0.80;;;0.70;;
27839;SDS011;15207;42.182;24.308;2023-08-07T01:01:05;0.80;;;0.60;;
27839;SDS011;15207;42.182;24.308;2023-08-07T01:03:32;1.75;;;0.70;;
27839;SDS011;15207;42.182;24.308;2023-08-07T01:08:24;0.80;;;0.50;;
27839;SDS011;15207;42.182;24.308;2023-08-07T01:16:01;2.60;;;0.80;;
27839;SDS011;15207;42.182;24.308;2023-08-07T01:18:32;0.60;;;0.60;;
27839;SDS011;15207;42.182;24.308;2023-08-07T01:20:59;1.30;;;0.70;;
27839;SDS011;15207;42.182;24.308;2023-08-07T01:23:27;0.55;;;0.50;;
27839;SDS011;15207;42.182;24.308;2023-08-07T01:25:53;2.80;;;1.10;;
27839;SDS011;15207;42.182;24.308;2023-08-07T01:28:31;1.60;;;0.70;;
27839;SDS011;15207;42.182;24.308;2023-08-07T01:33:51;0.80;;;0.80;;
27839;SDS011;15207;42.182;24.308;2023-08-07T01:36:25;0.87;;;0.83;;
27839;SDS011;15207;42.182;24.308;2023-08-07T01:38:54;1.80;;;1.00;;
27839;SDS011;15207;42.182;24.308;2023-08-07T01:41:25;1.05;;;0.95;;
27839;SDS011;15207;42.182;24.308;2023-08-07T01:46:18;1.35;;;1.10;;
27839;SDS011;15207;42.182;24.308;2023-08-07T01:48:44;4.50;;;1.20;;
27839;SDS011;15207;42.182;24.308;2023-08-07T01:53:35;1.40;;;1.10;;
27839;SDS011;15207;42.182;24.308;2023-08-07T01:56:00;1.80;;;1.20;;
27839;SDS011;15207;42.182;24.308;2023-08-07T01:58:25;1.80;;;1.10;;
27839;SDS011;15207;42.182;24.308;2023-08-07T02:00:51;2.90;;;1.27;;
27839;SDS011;15207;42.182;24.308;2023-08-07T02:03:17;1.10;;;0.80;;
27839;SDS011;15207;42.182;24.308;2023-08-07T02:05:44;2.10;;;1.20;;
27839;SDS011;15207;42.182;24.308;2023-08-07T02:08:11;2.25;;;1.15;;
27839;SDS011;15207;42.182;24.308;2023-08-07T02:10:36;1.30;;;1.20;;
27839;SDS011;15207;42.182;24.308;2023-08-07T02:13:02;1.30;;;1.00;;
27839;SDS011;15207;42.182;24.308;2023-08-07T02:15:27;2.25;;;1.10;;
27839;SDS011;15207;42.182;24.308;2023-08-07T02:20:18;1.45;;;1.00;;
27839;SDS011;15207;42.182;24.308;2023-08-07T02:22:44;1.90;;;0.95;;
27839;SDS011;15207;42.182;24.308;2023-08-07T02:25:10;1.10;;;0.90;;
27839;SDS011;15207;42.182;24.308;2023-08-07T02:27:36;1.30;;;1.20;;
27839;SDS011;15207;42.182;24.308;2023-08-07T02:30:01;2.35;;;1.10;;
27839;SDS011;15207;42.182;24.308;2023-08-07T02:32:28;1.00;;;0.85;;
27839;SDS011;15207;42.182;24.308;2023-08-07T02:34:54;1.90;;;1.60;;
27839;SDS011;15207;42.182;24.308;2023-08-07T02:37:20;1.80;;;1.00;;
27839;SDS011;15207;42.182;24.308;2023-08-07T02:39:46;1.40;;;1.00;;
27839;SDS011;15207;42.182;24.308;2023-08-07T02:42:11;0.80;;;0.80;;
27839;SDS011;15207;42.182;24.308;2023-08-07T02:47:03;2.50;;;0.90;;
27839;SDS011;15207;42.182;24.308;2023-08-07T02:49:28;0.85;;;0.80;;
27839;SDS011;15207;42.182;24.308;2023-08-07T02:51:54;1.45;;;0.75;;
27839;SDS011;15207;42.182;24.308;2023-08-07T02:54:20;3.00;;;0.70;;
27839;SDS011;15207;42.182;24.308;2023-08-07T02:56:45;0.70;;;0.70;;
27839;SDS011;15207;42.182;24.308;2023-08-07T02:59:11;0.80;;;0.80;;
27839;SDS011;15207;42.182;24.308;2023-08-07T03:01:37;1.55;;;0.90;;
27839;SDS011;15207;42.182;24.308;2023-08-07T03:04:03;1.07;;;0.97;;
27839;SDS011;15207;42.182;24.308;2023-08-07T03:08:55;0.93;;;0.80;;
27839;SDS011;15207;42.182;24.308;2023-08-07T03:11:21;1.25;;;1.00;;
27839;SDS011;15207;42.182;24.308;2023-08-07T03:13:47;1.30;;;0.75;;
27839;SDS011;15207;42.182;24.308;2023-08-07T03:16:14;1.30;;;1.00;;
27839;SDS011;15207;42.182;24.308;2023-08-07T03:18:39;1.73;;;1.08;;
27839;SDS011;15207;42.182;24.308;2023-08-07T03:21:05;1.70;;;0.90;;
27839;SDS011;15207;42.182;24.308;2023-08-07T03:23:30;0.80;;;0.70;;
27839;SDS011;15207;42.182;24.308;2023-08-07T03:26:29;1.30;;;1.00;;
27839;SDS011;15207;42.182;24.308;2023-08-07T03:28:48;1.00;;;0.80;;
27839;SDS011;15207;42.182;24.308;2023-08-07T03:31:13;0.90;;;0.80;;
27839;SDS011;15207;42.182;24.308;2023-08-07T03:33:39;1.15;;;0.95;;
27839;SDS011;15207;42.182;24.308;2023-08-07T03:40:56;0.90;;;0.80;;
27839;SDS011;15207;42.182;24.308;2023-08-07T03:43:22;2.30;;;0.90;;
27839;SDS011;15207;42.182;24.308;2023-08-07T03:48:19;1.25;;;0.85;;
27839;SDS011;15207;42.182;24.308;2023-08-07T03:50:44;2.50;;;1.00;;
27839;SDS011;15207;42.182;24.308;2023-08-07T03:53:11;2.63;;;1.13;;
27839;SDS011;15207;42.182;24.308;2023-08-07T03:55:36;1.05;;;0.90;;
27839;SDS011;15207;42.182;24.308;2023-08-07T03:58:02;3.80;;;0.90;;
27839;SDS011;15207;42.182;24.308;2023-08-07T04:00:28;2.05;;;0.85;;
27839;SDS011;15207;42.182;24.308;2023-08-07T04:02:54;0.70;;;0.70;;
27839;SDS011;15207;42.182;24.308;2023-08-07T04:10:10;3.10;;;1.20;;
27839;SDS011;15207;42.182;24.308;2023-08-07T04:12:36;1.75;;;1.15;;
27839;SDS011;15207;42.182;24.308;2023-08-07T04:15:02;1.50;;;1.00;;
27839;SDS011;15207;42.182;24.308;2023-08-07T04:17:27;4.00;;;1.35;;
27839;SDS011;15207;42.182;24.308;2023-08-07T04:27:11;1.40;;;1.10;;
27839;SDS011;15207;42.182;24.308;2023-08-07T04:29:37;1.30;;;1.20;;
27839;SDS011;15207;42.182;24.308;2023-08-07T04:32:02;2.95;;;1.05;;
27839;SDS011;15207;42.182;24.308;2023-08-07T04:36:54;2.05;;;1.00;;
27839;SDS011;15207;42.182;24.308;2023-08-07T04:39:21;1.40;;;1.10;;
27839;SDS011;15207;42.182;24.308;2023-08-07T04:41:47;1.80;;;1.10;;
27839;SDS011;15207;42.182;24.308;2023-08-07T04:44:15;2.30;;;1.30;;
27839;SDS011;15207;42.182;24.308;2023-08-07T04:46:43;1.30;;;1.00;;
27839;SDS011;15207;42.182;24.308;2023-08-07T04:49:09;1.90;;;1.30;;
27839;SDS011;15207;42.182;24.308;2023-08-07T04:51:34;1.50;;;1.20;;
27839;SDS011;15207;42.182;24.308;2023-08-07T04:54:00;1.65;;;1.05;;
27839;SDS011;15207;42.182;24.308;2023-08-07T04:56:26;1.30;;;1.20;;
27839;SDS011;15207;42.182;24.308;2023-08-07T04:58:53;1.30;;;1.00;;
27839;SDS011;15207;42.182;24.308;2023-08-07T05:01:19;2.10;;;0.95;;
27839;SDS011;15207;42.182;24.308;2023-08-07T05:03:47;1.75;;;1.30;;
27839;SDS011;15207;42.182;24.308;2023-08-07T05:06:14;1.75;;;1.20;;
27839;SDS011;15207;42.182;24.308;2023-08-07T05:11:05;1.50;;;1.20;;
27839;SDS011;15207;42.182;24.308;2023-08-07T05:15:57;1.45;;;1.20;;
27839;SDS011;15207;42.182;24.308;2023-08-07T05:18:22;1.50;;;1.15;;
27839;SDS011;15207;42.182;24.308;2023-08-07T05:20:48;1.40;;;1.10;;
27839;SDS011;15207;42.182;24.308;2023-08-07T05:23:13;2.23;;;1.07;;
27839;SDS011;15207;42.182;24.308;2023-08-07T05:25:39;2.40;;;1.10;;
27839;SDS011;15207;42.182;24.308;2023-08-07T05:30:30;1.75;;;1.30;;
27839;SDS011;15207;42.182;24.308;2023-08-07T05:35:22;1.30;;;1.20;;
27839;SDS011;15207;42.182;24.308;2023-08-07T05:37:48;2.25;;;1.20;;
27839;SDS011;15207;42.182;24.308;2023-08-07T05:47:32;1.25;;;1.05;;
27839;SDS011;15207;42.182;24.308;2023-08-07T05:52:23;1.30;;;1.20;;
27839;SDS011;15207;42.182;24.308;2023-08-07T05:54:49;1.40;;;1.20;;
27839;SDS011;15207;42.182;24.308;2023-08-07T05:57:14;1.30;;;1.05;;
27839;SDS011;15207;42.182;24.308;2023-08-07T05:59:40;1.85;;;1.10;;
27839;SDS011;15207;42.182;24.308;2023-08-07T06:02:05;1.90;;;1.20;;
27839;SDS011;15207;42.182;24.308;2023-08-07T06:04:31;2.80;;;1.60;;
27839;SDS011;15207;42.182;24.308;2023-08-07T06:06:57;0.95;;;0.90;;
27839;SDS011;15207;42.182;24.308;2023-08-07T06:09:22;1.40;;;1.20;;
27839;SDS011;15207;42.182;24.308;2023-08-07T06:14:14;1.40;;;1.20;;
27839;SDS011;15207;42.182;24.308;2023-08-07T06:16:40;1.30;;;1.20;;
27839;SDS011;15207;42.182;24.308;2023-08-07T06:19:06;2.20;;;1.00;;
27839;SDS011;15207;42.182;24.308;2023-08-07T06:21:32;1.60;;;1.10;;
27839;SDS011;15207;42.182;24.308;2023-08-07T06:23:58;2.85;;;1.20;;
27839;SDS011;15207;42.182;24.308;2023-08-07T06:26:24;1.90;;;1.40;;
27839;SDS011;15207;42.182;24.308;2023-08-07T06:28:50;3.40;;;1.30;;
27839;SDS011;15207;42.182;24.308;2023-08-07T06:31:15;2.13;;;1.17;;
27839;SDS011;15207;42.182;24.308;2023-08-07T06:33:41;1.70;;;1.10;;
27839;SDS011;15207;42.182;24.308;2023-08-07T06:38:35;1.40;;;0.95;;
27839;SDS011;15207;42.182;24.308;2023-08-07T06:41:01;1.55;;;1.30;;
27839;SDS011;15207;42.182;24.308;2023-08-07T06:43:27;2.40;;;1.20;;
27839;SDS011;15207;42.182;24.308;2023-08-07T06:48:19;1.30;;;1.20;;
27839;SDS011;15207;42.182;24.308;2023-08-07T06:53:13;2.30;;;1.30;;
27839;SDS011;15207;42.182;24.308;2023-08-07T06:55:38;2.70;;;1.10;;
27839;SDS011;15207;42.182;24.308;2023-08-07T07:00:31;1.80;;;1.00;;
27839;SDS011;15207;42.182;24.308;2023-08-07T07:02:57;1.60;;;1.10;;
27839;SDS011;15207;42.182;24.308;2023-08-07T07:05:23;1.00;;;0.90;;
27839;SDS011;15207;42.182;24.308;2023-08-07T07:07:48;1.80;;;1.00;;
27839;SDS011;15207;42.182;24.308;2023-08-07T07:10:14;1.00;;;0.80;;
27839;SDS011;15207;42.182;24.308;2023-08-07T07:15:05;1.30;;;1.00;;
27839;SDS011;15207;42.182;24.308;2023-08-07T07:19:56;1.20;;;0.90;;
27839;SDS011;15207;42.182;24.308;2023-08-07T07:22:23;1.10;;;1.00;;
27839;SDS011;15207;42.182;24.308;2023-08-07T07:24:49;1.20;;;1.10;;
27839;SDS011;15207;42.182;24.308;2023-08-07T07:27:15;0.80;;;0.80;;
27839;SDS011;15207;42.182;24.308;2023-08-07T07:29:41;2.10;;;1.00;;
27839;SDS011;15207;42.182;24.308;2023-08-07T07:32:06;1.67;;;1.00;;
27839;SDS011;15207;42.182;24.308;2023-08-07T07:34:32;1.00;;;0.80;;
27839;SDS011;15207;42.182;24.308;2023-08-07T07:36:58;1.45;;;0.80;;
27839;SDS011;15207;42.182;24.308;2023-08-07T07:39:24;1.55;;;1.20;;
27839;SDS011;15207;42.182;24.308;2023-08-07T07:44:15;1.00;;;0.80;;
27839;SDS011;15207;42.182;24.308;2023-08-07T07:46:40;1.15;;;0.70;;
27839;SDS011;15207;42.182;24.308;2023-08-07T07:49:06;1.40;;;0.90;;
27839;SDS011;15207;42.182;24.308;2023-08-07T07:51:32;1.60;;;0.75;;
27839;SDS011;15207;42.182;24.308;2023-08-07T07:53:58;0.80;;;0.75;;
27839;SDS011;15207;42.182;24.308;2023-08-07T07:56:24;0.80;;;0.80;;
27839;SDS011;15207;42.182;24.308;2023-08-07T07:58:50;0.90;;;0.60;;
27839;SDS011;15207;42.182;24.308;2023-08-07T08:01:15;0.85;;;0.80;;
27839;SDS011;15207;42.182;24.308;2023-08-07T08:03:43;0.60;;;0.55;;
27839;SDS011;15207;42.182;24.308;2023-08-07T08:06:11;1.80;;;0.90;;
27839;SDS011;15207;42.182;24.308;2023-08-07T08:08:37;0.80;;;0.60;;
27839;SDS011;15207;42.182;24.308;2023-08-07T08:11:02;0.80;;;0.60;;
27839;SDS011;15207;42.182;24.308;2023-08-07T08:13:28;1.50;;;0.70;;
27839;SDS011;15207;42.182;24.308;2023-08-07T08:15:54;0.70;;;0.60;;
27839;SDS011;15207;42.182;24.308;2023-08-07T08:18:19;2.40;;;0.80;;
27839;SDS011;15207;42.182;24.308;2023-08-07T08:20:45;1.25;;;0.70;;
27839;SDS011;15207;42.182;24.308;2023-08-07T08:23:10;1.10;;;0.80;;
27839;SDS011;15207;42.182;24.308;2023-08-07T08:25:36;1.20;;;0.90;;
27839;SDS011;15207;42.182;24.308;2023-08-07T08:30:28;0.70;;;0.70;;
27839;SDS011;15207;42.182;24.308;2023-08-07T08:35:20;0.50;;;0.50;;
27839;SDS011;15207;42.182;24.308;2023-08-07T08:37:46;0.40;;;0.40;;
27839;SDS011;15207;42.182;24.308;2023-08-07T08:40:11;0.70;;;0.60;;
27839;SDS011;15207;42.182;24.308;2023-08-07T08:42:41;0.90;;;0.70;;
27839;SDS011;15207;42.182;24.308;2023-08-07T08:45:09;0.50;;;0.50;;
27839;SDS011;15207;42.182;24.308;2023-08-07T08:50:07;0.70;;;0.60;;
27839;SDS011;15207;42.182;24.308;2023-08-07T08:52:37;2.00;;;0.70;;
27839;SDS011;15207;42.182;24.308;2023-08-07T08:55:03;0.70;;;0.60;;
27839;SDS011;15207;42.182;24.308;2023-08-07T08:57:30;0.80;;;0.60;;
27839;SDS011;15207;42.182;24.308;2023-08-07T08:59:56;0.60;;;0.50;;
27839;SDS011;15207;42.182;24.308;2023-08-07T09:02:22;3.40;;;0.90;;
27839;SDS011;15207;42.182;24.308;2023-08-07T09:04:48;1.00;;;0.65;;
27839;SDS011;15207;42.182;24.308;2023-08-07T09:07:15;0.80;;;0.50;;
27839;SDS011;15207;42.182;24.308;2023-08-07T09:09:43;0.50;;;0.50;;
27839;SDS011;15207;42.182;24.308;2023-08-07T09:17:06;0.50;;;0.50;;
27839;SDS011;15207;42.182;24.308;2023-08-07T09:19:33;0.70;;;0.40;;
27839;SDS011;15207;42.182;24.308;2023-08-07T09:21:58;0.90;;;0.65;;
27839;SDS011;15207;42.182;24.308;2023-08-07T09:24:25;1.60;;;0.70;;
27839;SDS011;15207;42.182;24.308;2023-08-07T09:29:18;0.95;;;0.85;;
27839;SDS011;15207;42.182;24.308;2023-08-07T09:31:49;0.50;;;0.50;;
27839;SDS011;15207;42.182;24.308;2023-08-07T09:36:45;0.60;;;0.60;;
27839;SDS011;15207;42.182;24.308;2023-08-07T09:39:12;0.80;;;0.60;;
27839;SDS011;15207;42.182;24.308;2023-08-07T09:41:38;1.20;;;0.60;;
27839;SDS011;15207;42.182;24.308;2023-08-07T09:44:07;2.20;;;0.70;;
27839;SDS011;15207;42.182;24.308;2023-08-07T09:49:05;0.70;;;0.60;;
27839;SDS011;15207;42.182;24.308;2023-08-07T09:51:49;1.00;;;0.60;;
27839;SDS011;15207;42.182;24.308;2023-08-07T09:54:16;0.95;;;0.60;;
27839;SDS011;15207;42.182;24.308;2023-08-07T09:56:44;0.90;;;0.50;;
27839;SDS011;15207;42.182;24.308;2023-08-07T09:59:12;1.80;;;0.55;;
27839;SDS011;15207;42.182;24.308;2023-08-07T10:01:38;0.75;;;0.65;;
27839;SDS011;15207;42.182;24.308;2023-08-07T10:04:05;0.50;;;0.50;;
27839;SDS011;15207;42.182;24.308;2023-08-07T10:06:31;0.90;;;0.50;;
27839;SDS011;15207;42.182;24.308;2023-08-07T10:08:57;2.45;;;0.65;;
27839;SDS011;15207;42.182;24.308;2023-08-07T10:11:24;1.10;;;0.60;;
27839;SDS011;15207;42.182;24.308;2023-08-07T10:13:51;2.60;;;0.60;;
27839;SDS011;15207;42.182;24.308;2023-08-07T10:16:17;0.40;;;0.40;;
27839;SDS011;15207;42.182;24.308;2023-08-07T10:18:42;0.90;;;0.50;;
27839;SDS011;15207;42.182;24.308;2023-08-07T10:21:08;4.15;;;0.70;;
27839;SDS011;15207;42.182;24.308;2023-08-07T10:23:35;0.90;;;0.50;;
27839;SDS011;15207;42.182;24.308;2023-08-07T10:26:03;1.65;;;0.60;;
27839;SDS011;15207;42.182;24.308;2023-08-07T10:28:33;0.60;;;0.50;;
27839;SDS011;15207;42.182;24.308;2023-08-07T10:31:03;0.90;;;0.50;;
27839;SDS011;15207;42.182;24.308;2023-08-07T10:33:31;1.40;;;0.30;;
27839;SDS011;15207;42.182;24.308;2023-08-07T10:35:58;0.90;;;0.50;;
27839;SDS011;15207;42.182;24.308;2023-08-07T10:38:28;0.60;;;0.60;;
27839;SDS011;15207;42.182;24.308;2023-08-07T10:43:39;1.95;;;0.65;;
27839;SDS011;15207;42.182;24.308;2023-08-07T10:46:19;0.50;;;0.50;;
27839;SDS011;15207;42.182;24.308;2023-08-07T10:48:46;0.40;;;0.40;;
27839;SDS011;15207;42.182;24.308;2023-08-07T10:51:21;3.70;;;0.70;;
27839;SDS011;15207;42.182;24.308;2023-08-07T10:53:54;2.30;;;0.90;;
27839;SDS011;15207;42.182;24.308;2023-08-07T10:56:34;1.60;;;0.60;;
27839;SDS011;15207;42.182;24.308;2023-08-07T10:59:09;0.60;;;0.55;;
27839;SDS011;15207;42.182;24.308;2023-08-07T11:01:42;0.90;;;0.70;;
27839;SDS011;15207;42.182;24.308;2023-08-07T11:06:39;0.50;;;0.50;;
27839;SDS011;15207;42.182;24.308;2023-08-07T11:09:06;1.00;;;0.60;;
27839;SDS011;15207;42.182;24.308;2023-08-07T11:14:06;1.00;;;0.90;;
27839;SDS011;15207;42.182;24.308;2023-08-07T11:16:34;0.60;;;0.50;;
27839;SDS011;15207;42.182;24.308;2023-08-07T11:23:51;2.40;;;0.70;;
27839;SDS011;15207;42.182;24.308;2023-08-07T11:28:42;0.70;;;0.60;;
27839;SDS011;15207;42.182;24.308;2023-08-07T11:31:08;1.10;;;0.50;;
27839;SDS011;15207;42.182;24.308;2023-08-07T11:33:34;0.55;;;0.55;;
27839;SDS011;15207;42.182;24.308;2023-08-07T11:36:01;0.50;;;0.50;;
27839;SDS011;15207;42.182;24.308;2023-08-07T11:41:03;0.70;;;0.60;;
27839;SDS011;15207;42.182;24.308;2023-08-07T11:43:31;0.90;;;0.70;;
27839;SDS011;15207;42.182;24.308;2023-08-07T11:45:57;0.60;;;0.50;;
27839;SDS011;15207;42.182;24.308;2023-08-07T11:48:25;1.25;;;0.60;;
27839;SDS011;15207;42.182;24.308;2023-08-07T11:50:52;0.70;;;0.60;;
27839;SDS011;15207;42.182;24.308;2023-08-07T11:53:21;0.80;;;0.60;;
27839;SDS011;15207;42.182;24.308;2023-08-07T11:58:20;0.65;;;0.55;;
27839;SDS011;15207;42.182;24.308;2023-08-07T12:00:46;0.70;;;0.50;;
27839;SDS011;15207;42.182;24.308;2023-08-07T12:05:55;1.20;;;0.70;;
27839;SDS011;15207;42.182;24.308;2023-08-07T12:08:22;1.60;;;0.50;;
27839;SDS011;15207;42.182;24.308;2023-08-07T12:10:56;1.40;;;0.60;;
27839;SDS011;15207;42.182;24.308;2023-08-07T12:15:54;8.70;;;1.60;;
27839;SDS011;15207;42.182;24.308;2023-08-07T12:18:22;0.60;;;0.50;;
27839;SDS011;15207;42.182;24.308;2023-08-07T12:20:49;0.50;;;0.40;;
27839;SDS011;15207;42.182;24.308;2023-08-07T12:23:16;1.15;;;0.50;;
27839;SDS011;15207;42.182;24.308;2023-08-07T12:25:43;1.00;;;0.50;;
27839;SDS011;15207;42.182;24.308;2023-08-07T12:28:12;0.70;;;0.50;;
27839;SDS011;15207;42.182;24.308;2023-08-07T12:30:40;1.00;;;0.40;;
27839;SDS011;15207;42.182;24.308;2023-08-07T12:33:09;1.00;;;0.60;;
27839;SDS011;15207;42.182;24.308;2023-08-07T12:35:34;0.73;;;0.50;;
27839;SDS011;15207;42.182;24.308;2023-08-07T12:38:00;0.80;;;0.70;;
27839;SDS011;15207;42.182;24.308;2023-08-07T12:42:57;1.23;;;0.60;;
27839;SDS011;15207;42.182;24.308;2023-08-07T12:45:24;0.50;;;0.50;;
27839;SDS011;15207;42.182;24.308;2023-08-07T12:47:49;1.35;;;0.70;;
27839;SDS011;15207;42.182;24.308;2023-08-07T12:50:15;1.60;;;0.90;;
27839;SDS011;15207;42.182;24.308;2023-08-07T12:52:40;0.60;;;0.60;;
27839;SDS011;15207;42.182;24.308;2023-08-07T12:55:06;0.80;;;0.55;;
27839;SDS011;15207;42.182;24.308;2023-08-07T12:57:32;1.40;;;0.50;;
27839;SDS011;15207;42.182;24.308;2023-08-07T12:59:58;1.40;;;0.70;;
27839;SDS011;15207;42.182;24.308;2023-08-07T13:04:49;0.65;;;0.50;;
27839;SDS011;15207;42.182;24.308;2023-08-07T13:07:16;0.60;;;0.60;;
27839;SDS011;15207;42.182;24.308;2023-08-07T13:09:45;0.60;;;0.50;;
27839;SDS011;15207;42.182;24.308;2023-08-07T13:12:11;1.60;;;0.70;;
27839;SDS011;15207;42.182;24.308;2023-08-07T13:14:37;0.80;;;0.60;;
27839;SDS011;15207;42.182;24.308;2023-08-07T13:17:03;1.80;;;0.40;;
27839;SDS011;15207;42.182;24.308;2023-08-07T13:19:29;1.00;;;0.60;;
27839;SDS011;15207;42.182;24.308;2023-08-07T13:21:55;0.90;;;0.45;;
27839;SDS011;15207;42.182;24.308;2023-08-07T13:24:20;0.90;;;0.80;;
27839;SDS011;15207;42.182;24.308;2023-08-07T13:26:46;0.85;;;0.60;;
27839;SDS011;15207;42.182;24.308;2023-08-07T13:29:16;0.90;;;0.60;;
27839;SDS011;15207;42.182;24.308;2023-08-07T13:31:41;1.40;;;0.70;;
27839;SDS011;15207;42.182;24.308;2023-08-07T13:34:09;1.10;;;0.50;;
27839;SDS011;15207;42.182;24.308;2023-08-07T13:36:35;0.60;;;0.60;;
27839;SDS011;15207;42.182;24.308;2023-08-07T13:39:02;0.60;;;0.60;;
27839;SDS011;15207;42.182;24.308;2023-08-07T13:41:28;0.75;;;0.50;;
27839;SDS011;15207;42.182;24.308;2023-08-07T13:43:53;1.40;;;0.80;;
27839;SDS011;15207;42.182;24.308;2023-08-07T13:46:19;0.60;;;0.50;;
27839;SDS011;15207;42.182;24.308;2023-08-07T13:48:46;1.50;;;0.60;;
27839;SDS011;15207;42.182;24.308;2023-08-07T13:51:13;0.80;;;0.50;;
27839;SDS011;15207;42.182;24.308;2023-08-07T13:53:39;0.50;;;0.40;;
27839;SDS011;15207;42.182;24.308;2023-08-07T13:56:06;0.60;;;0.60;;
27839;SDS011;15207;42.182;24.308;2023-08-07T13:58:34;1.30;;;0.80;;
27839;SDS011;15207;42.182;24.308;2023-08-07T14:00:59;0.65;;;0.60;;
27839;SDS011;15207;42.182;24.308;2023-08-07T14:03:25;1.65;;;0.60;;
27839;SDS011;15207;42.182;24.308;2023-08-07T14:05:50;0.90;;;0.55;;
27839;SDS011;15207;42.182;24.308;2023-08-07T14:08:16;0.40;;;0.30;;
27839;SDS011;15207;42.182;24.308;2023-08-07T14:10:42;0.40;;;0.40;;
27839;SDS011;15207;42.182;24.308;2023-08-07T14:15:34;1.30;;;0.70;;
27839;SDS011;15207;42.182;24.308;2023-08-07T14:18:00;1.40;;;0.60;;
27839;SDS011;15207;42.182;24.308;2023-08-07T14:25:16;0.60;;;0.40;;
27839;SDS011;15207;42.182;24.308;2023-08-07T14:27:41;0.40;;;0.40;;
27839;SDS011;15207;42.182;24.308;2023-08-07T14:30:07;0.70;;;0.60;;
27839;SDS011;15207;42.182;24.308;2023-08-07T14:34:58;0.80;;;0.60;;
27839;SDS011;15207;42.182;24.308;2023-08-07T14:37:24;1.15;;;0.60;;
27839;SDS011;15207;42.182;24.308;2023-08-07T14:39:50;0.70;;;0.60;;
27839;SDS011;15207;42.182;24.308;2023-08-07T14:42:16;0.80;;;0.50;;
27839;SDS011;15207;42.182;24.308;2023-08-07T14:44:42;0.90;;;0.70;;
27839;SDS011;15207;42.182;24.308;2023-08-07T14:51:58;1.15;;;0.55;;
27839;SDS011;15207;42.182;24.308;2023-08-07T14:54:24;2.55;;;0.60;;
27839;SDS011;15207;42.182;24.308;2023-08-07T14:56:50;0.50;;;0.50;;
27839;SDS011;15207;42.182;24.308;2023-08-07T14:59:15;0.95;;;0.50;;
27839;SDS011;15207;42.182;24.308;2023-08-07T15:01:41;0.50;;;0.40;;
27839;SDS011;15207;42.182;24.308;2023-08-07T15:04:06;1.10;;;0.80;;
27839;SDS011;15207;42.182;24.308;2023-08-07T15:06:32;0.95;;;0.50;;
27839;SDS011;15207;42.182;24.308;2023-08-07T15:08:58;1.10;;;0.70;;
27839;SDS011;15207;42.182;24.308;2023-08-07T15:11:24;0.70;;;0.40;;
27839;SDS011;15207;42.182;24.308;2023-08-07T15:13:49;2.40;;;0.50;;
27839;SDS011;15207;42.182;24.308;2023-08-07T15:16:15;2.15;;;0.70;;
27839;SDS011;15207;42.182;24.308;2023-08-07T15:18:41;0.70;;;0.65;;
27839;SDS011;15207;42.182;24.308;2023-08-07T15:21:06;0.50;;;0.50;;
27839;SDS011;15207;42.182;24.308;2023-08-07T15:23:32;2.10;;;0.60;;
27839;SDS011;15207;42.182;24.308;2023-08-07T15:25:58;0.70;;;0.40;;
27839;SDS011;15207;42.182;24.308;2023-08-07T15:28:24;0.50;;;0.40;;
27839;SDS011;15207;42.182;24.308;2023-08-07T15:30:50;0.85;;;0.60;;
27839;SDS011;15207;42.182;24.308;2023-08-07T15:33:16;0.90;;;0.70;;
27839;SDS011;15207;42.182;24.308;2023-08-07T15:35:42;2.90;;;1.10;;
27839;SDS011;15207;42.182;24.308;2023-08-07T15:38:08;0.55;;;0.50;;
27839;SDS011;15207;42.182;24.308;2023-08-07T15:40:38;0.50;;;0.50;;
27839;SDS011;15207;42.182;24.308;2023-08-07T15:47:56;0.80;;;0.60;;
27839;SDS011;15207;42.182;24.308;2023-08-07T15:52:47;0.65;;;0.60;;
27839;SDS011;15207;42.182;24.308;2023-08-07T15:55:13;0.80;;;0.50;;
27839;SDS011;15207;42.182;24.308;2023-08-07T15:57:38;0.60;;;0.60;;
27839;SDS011;15207;42.182;24.308;2023-08-07T16:00:04;0.50;;;0.50;;
27839;SDS011;15207;42.182;24.308;2023-08-07T16:04:56;1.45;;;0.50;;
27839;SDS011;15207;42.182;24.308;2023-08-07T16:07:22;0.70;;;0.60;;
27839;SDS011;15207;42.182;24.308;2023-08-07T16:09:47;0.80;;;0.40;;
27839;SDS011;15207;42.182;24.308;2023-08-07T16:12:13;0.80;;;0.60;;
27839;SDS011;15207;42.182;24.308;2023-08-07T16:14:38;0.80;;;0.60;;
27839;SDS011;15207;42.182;24.308;2023-08-07T16:17:04;0.80;;;0.70;;
27839;SDS011;15207;42.182;24.308;2023-08-07T16:19:30;1.25;;;0.70;;
27839;SDS011;15207;42.182;24.308;2023-08-07T16:21:56;4.40;;;1.00;;
27839;SDS011;15207;42.182;24.308;2023-08-07T16:24:22;2.43;;;1.00;;
27839;SDS011;15207;42.182;24.308;2023-08-07T16:26:47;3.20;;;1.00;;
27839;SDS011;15207;42.182;24.308;2023-08-07T16:29:13;2.25;;;0.70;;
27839;SDS011;15207;42.182;24.308;2023-08-07T16:31:39;2.30;;;0.70;;
27839;SDS011;15207;42.182;24.308;2023-08-07T16:34:05;1.20;;;0.80;;
27839;SDS011;15207;42.182;24.308;2023-08-07T16:36:31;0.70;;;0.70;;
27839;SDS011;15207;42.182;24.308;2023-08-07T16:38:56;1.10;;;0.60;;
27839;SDS011;15207;42.182;24.308;2023-08-07T16:41:22;1.05;;;0.75;;
27839;SDS011;15207;42.182;24.308;2023-08-07T16:43:48;2.80;;;1.00;;
27839;SDS011;15207;42.182;24.308;2023-08-07T16:46:13;1.50;;;0.90;;
27839;SDS011;15207;42.182;24.308;2023-08-07T16:48:41;3.70;;;1.00;;
27839;SDS011;15207;42.182;24.308;2023-08-07T16:51:07;1.40;;;0.90;;
27839;SDS011;15207;42.182;24.308;2023-08-07T16:55:58;1.75;;;0.80;;
27839;SDS011;15207;42.182;24.308;2023-08-07T16:58:23;1.80;;;0.80;;
27839;SDS011;15207;42.182;24.308;2023-08-07T17:03:14;1.60;;;1.00;;
27839;SDS011;15207;42.182;24.308;2023-08-07T17:05:40;1.30;;;0.70;;
27839;SDS011;15207;42.182;24.308;2023-08-07T17:08:06;1.30;;;0.90;;
27839;SDS011;15207;42.182;24.308;2023-08-07T17:10:31;1.30;;;0.75;;
27839;SDS011;15207;42.182;24.308;2023-08-07T17:15:23;1.00;;;0.70;;
27839;SDS011;15207;42.182;24.308;2023-08-07T17:17:49;1.50;;;0.80;;
27839;SDS011;15207;42.182;24.308;2023-08-07T17:20:15;1.40;;;1.10;;
27839;SDS011;15207;42.182;24.308;2023-08-07T17:22:41;1.30;;;0.90;;
27839;SDS011;15207;42.182;24.308;2023-08-07T17:25:07;2.10;;;0.90;;
27839;SDS011;15207;42.182;24.308;2023-08-07T17:27:33;2.40;;;1.10;;
27839;SDS011;15207;42.182;24.308;2023-08-07T17:29:58;1.00;;;0.90;;